Schedule Details

Flight Number: CPX789
Departure: Changi International Airport (WSSS) at N/A
Arrival: Incheon International Airport (RKSI) at N/A
Route: TOMAN2A TOMAN L625 MEVIN B462 MJC IKEMA Y62 YURIX Y27 RUSAR Y579 CJU B576 OLMEN OLMEN1P


Current Weather Information
WSSS 192300Z 07003KT 040V100 9000 FEW016 BKN300 26/24 Q1013 NOSIG
RKSI 192300Z 28006KT 6000 BKN040 02/M02 Q1024 NOSIG